Terminal Aerodrome Forecast
Issued by NWS

Home | Current Version | Previous Version | Text Only | Print | Product List | Glossary On
Versions: 1 2 3 4 5 6 7 8 9 10 11 12 13 14 15
000
FTUS43 KUNR 041143 AAA
TAFGCC
TAF AMD
KGCC 041143Z 0412/0512 15011KT P6SM BKN040
     FM041500 16023G33KT P6SM BKN050
     FM042300 16018G28KT P6SM BKN250=

USA.gov is the U.S. government's official web portal to all federal, state and local government web resources and services.